Time;durP1;ratioP1;P1;durP2;ratioP2;P2;SDS_P1;SDS_P2;PMS_P1;PMS_P2;Temp;Humidity;BMP_temperature;BMP_pressure;BME280_temperature;BME280_humidity;BME280_pressure;Samples;Min_cycle;Max_cycle;Signal;HPM_P1;HPM_P2
2022/10/05 00:00:54;;;;;;;23.67;10.35;;;;;;;7.67;89.10;100879.78;1623588;87;27901;-66
2022/10/05 00:03:37;;;;;;;21.97;10.15;;;;;;;7.67;89.23;100879.23;1645514;86;25761;-66
2022/10/05 00:06:06;;;;;;;18.07;9.13;;;;;;;7.67;89.30;100883.27;1655585;86;25745;-66
2022/10/05 00:08:34;;;;;;;22.20;10.40;;;;;;;7.68;89.73;100876.02;1643580;87;25985;-67
2022/10/05 00:11:01;;;;;;;18.02;9.95;;;;;;;7.70;89.76;100876.55;1625177;87;25665;-67
2022/10/05 00:13:30;;;;;;;18.52;9.10;;;;;;;7.70;89.64;100876.55;1666884;86;27387;-67
2022/10/05 00:16:21;;;;;;;17.37;9.98;;;;;;;7.70;89.73;100883.28;1677578;85;25394;-67
2022/10/05 00:18:51;;;;;;;21.30;9.58;;;;;;;7.71;89.70;100878.69;1680542;85;25576;-67
2022/10/05 00:21:24;;;;;;;18.77;10.50;;;;;;;7.74;90.04;100876.80;1653316;85;27431;-66
2022/10/05 00:23:53;;;;;;;21.17;10.00;;;;;;;7.74;90.12;100872.21;1672452;85;25599;-67
2022/10/05 00:26:25;;;;;;;16.80;9.77;;;;;;;7.76;90.07;100870.59;1676345;85;27924;-67
2022/10/05 00:28:53;;;;;;;21.07;11.63;;;;;;;7.78;90.02;100875.98;1674078;85;25445;-67
2022/10/05 00:31:23;;;;;;;19.60;10.55;;;;;;;7.80;90.00;100879.75;1677496;85;25826;-67
2022/10/05 00:33:50;;;;;;;21.05;11.08;;;;;;;7.82;90.01;100881.06;1667560;85;25988;-67
2022/10/05 00:36:17;;;;;;;21.33;11.05;;;;;;;7.83;90.14;100865.19;1676438;84;25584;-67
2022/10/05 00:38:44;;;;;;;23.73;9.95;;;;;;;7.84;90.13;100874.86;1667896;84;27344;-67
2022/10/05 00:41:37;;;;;;;18.07;10.18;;;;;;;7.86;90.21;100876.73;1643605;86;25688;-67
2022/10/05 00:44:25;;;;;;;19.02;9.60;;;;;;;7.88;90.20;100871.07;1678944;85;25444;-67
2022/10/05 00:47:39;;;;;;;20.80;9.65;;;;;;;7.90;90.15;100872.97;1677789;85;26977;-67
2022/10/05 00:50:33;;;;;;;20.23;9.93;;;;;;;7.93;90.12;100872.94;1675699;85;25543;-66
2022/10/05 00:53:22;;;;;;;19.92;10.08;;;;;;;7.94;90.03;100874.56;1639177;86;27304;-68
2022/10/05 00:56:00;;;;;;;20.65;9.68;;;;;;;7.94;90.00;100867.83;1643321;86;26241;-68
2022/10/05 00:59:06;;;;;;;16.80;8.50;;;;;;;7.93;90.02;100879.67;1645577;87;25776;-68
2022/10/05 01:01:47;;;;;;;17.32;9.10;;;;;;;7.93;90.00;100888.55;1650924;86;25595;-68
2022/10/05 01:04:21;;;;;;;23.12;10.88;;;;;;;7.93;90.02;100886.41;1641426;87;25553;-66
2022/10/05 01:07:33;;;;;;;18.85;9.48;;;;;;;7.92;90.20;100884.27;1644360;87;27367;-66
2022/10/05 01:10:14;;;;;;;20.65;9.85;;;;;;;7.92;90.21;100888.31;1546245;91;25724;-67
2022/10/05 01:13:08;;;;;;;23.38;8.63;;;;;;;7.92;90.18;100885.62;1546543;91;25720;-66
2022/10/05 01:15:48;;;;;;;16.30;8.83;;;;;;;7.93;90.26;100871.05;1547441;91;25934;-66
2022/10/05 01:18:37;;;;;;;19.77;9.25;;;;;;;7.93;90.39;100873.73;1547940;90;25667;-66
2022/10/05 01:21:22;;;;;;;15.43;9.15;;;;;;;7.94;90.47;100871.88;1525232;92;28195;-67
2022/10/05 01:24:03;;;;;;;17.70;9.18;;;;;;;7.94;90.57;100882.09;1543684;91;25522;-66
2022/10/05 01:26:51;;;;;;;15.30;8.85;;;;;;;7.94;90.42;100884.00;1554383;90;25495;-68
2022/10/05 01:29:39;;;;;;;20.25;9.50;;;;;;;7.95;90.60;100885.59;1537621;91;25998;-67
2022/10/05 01:32:26;;;;;;;18.50;9.85;;;;;;;7.95;90.49;100886.94;1588204;89;25703;-66
2022/10/05 01:35:06;;;;;;;19.45;10.38;;;;;;;7.95;90.58;100885.06;1624550;86;28142;-66
2022/10/05 01:38:04;;;;;;;21.07;9.43;;;;;;;7.98;90.60;100886.39;1628010;87;25924;-66
2022/10/05 01:40:51;;;;;;;17.35;8.55;;;;;;;7.98;90.57;100877.75;1606371;88;25496;-66
2022/10/05 01:43:50;;;;;;;20.02;8.78;;;;;;;7.98;90.55;100882.34;1586916;89;25957;-66
2022/10/05 01:46:28;;;;;;;15.70;8.65;;;;;;;7.99;90.60;100885.31;1639964;85;25405;-68
2022/10/05 01:49:17;;;;;;;17.55;8.73;;;;;;;7.99;90.54;100886.11;1686002;83;27385;-68
2022/10/05 01:52:24;;;;;;;16.60;8.48;;;;;;;8.00;90.53;100889.60;1669342;83;25629;-68
2022/10/05 01:55:15;;;;;;;18.90;8.28;;;;;;;7.99;90.46;100875.34;1667656;84;25687;-68
2022/10/05 01:58:02;;;;;;;19.05;8.70;;;;;;;7.98;90.53;100872.37;1670990;84;26118;-66
2022/10/05 02:00:32;;;;;;;20.52;9.13;;;;;;;7.96;90.61;100878.58;1680267;84;25367;-66
2022/10/05 02:03:09;;;;;;;14.90;8.60;;;;;;;7.96;90.72;100890.70;1685364;85;28173;-66
2022/10/05 02:05:47;;;;;;;17.98;9.10;;;;;;;7.96;90.83;100892.59;1684486;85;25401;-66
2022/10/05 02:08:18;;;;;;;17.67;8.48;;;;;;;7.95;90.80;100887.77;1688231;83;25449;-66
2022/10/05 02:10:56;;;;;;;16.67;9.05;;;;;;;7.97;90.72;100890.19;1690905;84;28137;-66
2022/10/05 02:13:44;;;;;;;17.48;8.73;;;;;;;7.96;90.83;100892.05;1689606;84;25459;-68
2022/10/05 02:16:34;;;;;;;17.25;8.95;;;;;;;7.98;90.70;100898.51;1686330;84;27414;-65
2022/10/05 02:19:34;;;;;;;;;;;;;;;7.98;90.79;100895.81;1684629;83;25608;-66
2022/10/05 02:22:12;;;;;;;13.80;7.08;;;;;;;7.96;90.77;100883.97;1691884;83;25471;-67
2022/10/05 02:24:43;;;;;;;15.35;8.13;;;;;;;7.92;90.61;100872.14;1686446;84;25890;-66
2022/10/05 02:27:13;;;;;;;16.57;8.28;;;;;;;7.90;90.48;100871.63;1682697;84;25392;-66
2022/10/05 02:29:44;;;;;;;16.35;8.88;;;;;;;7.87;90.55;100862.75;1687208;84;28067;-66
2022/10/05 02:32:19;;;;;;;15.88;7.87;;;;;;;7.85;90.45;100856.28;1676679;83;25667;-68
2022/10/05 02:34:45;;;;;;;16.95;9.23;;;;;;;7.82;90.48;100837.98;1676652;83;25614;-67
2022/10/05 02:37:37;;;;;;;18.48;8.50;;;;;;;7.80;90.44;100837.45;1691704;84;25984;-67
2022/10/05 02:40:24;;;;;;;18.45;8.05;;;;;;;7.78;90.40;100840.97;1659998;84;25561;-67
2022/10/05 02:43:19;;;;;;;16.50;8.65;;;;;;;7.76;90.43;100829.64;1658399;86;29488;-66
2022/10/05 02:46:00;;;;;;;20.17;8.23;;;;;;;7.75;90.60;100838.83;1602246;86;25948;-66
2022/10/05 02:49:01;;;;;;;23.18;9.08;;;;;;;7.74;90.64;100843.94;1618925;87;25652;-66
2022/10/05 02:51:54;;;;;;;22.62;9.20;;;;;;;7.72;90.78;100850.14;1657052;84;25995;-66
2022/10/05 02:55:05;;;;;;;19.05;9.75;;;;;;;7.70;90.87;100844.23;1689007;83;25399;-66
2022/10/05 02:57:43;;;;;;;17.67;8.75;;;;;;;7.70;90.90;100850.17;1659426;84;27235;-66
2022/10/05 03:00:17;;;;;;;20.52;9.60;;;;;;;7.66;90.95;100847.20;1620563;86;25683;-66
2022/10/05 03:02:57;;;;;;;17.27;8.60;;;;;;;7.63;90.85;100842.39;1615405;86;25462;-66
2022/10/05 03:05:50;;;;;;;21.52;9.15;;;;;;;7.60;90.84;100851.80;1626898;87;25644;-66
2022/10/05 03:09:07;;;;;;;15.72;9.60;;;;;;;7.58;91.00;100849.14;1631591;86;25774;-66
2022/10/05 03:11:51;;;;;;;18.75;8.78;;;;;;;7.58;91.05;100856.66;1638700;86;27475;-68
2022/10/05 03:14:38;;;;;;;18.02;9.68;;;;;;;7.58;91.00;100862.59;1662927;86;25675;-66
2022/10/05 03:17:12;;;;;;;16.93;9.40;;;;;;;7.57;90.99;100865.81;1647211;86;25811;-66
2022/10/05 03:20:03;;;;;;;19.50;9.70;;;;;;;7.55;90.90;100861.25;1646765;85;25942;-69
2022/10/05 03:23:00;;;;;;;19.23;9.48;;;;;;;7.55;90.93;100864.48;1638983;86;25581;-66
2022/10/05 03:25:50;;;;;;;20.62;10.05;;;;;;;7.54;90.98;100871.73;1635292;87;27349;-67
2022/10/05 03:28:32;;;;;;;22.95;10.75;;;;;;;7.54;91.05;100885.75;1627407;85;25441;-66
2022/10/05 03:31:03;;;;;;;22.30;10.75;;;;;;;7.54;91.09;100884.40;1627604;87;25602;-66
2022/10/05 03:33:40;;;;;;;17.90;9.65;;;;;;;7.53;91.14;100879.56;1658329;86;26080;-66
2022/10/05 03:36:11;;;;;;;17.12;10.45;;;;;;;7.53;91.21;100881.45;1665685;86;25531;-66
2022/10/05 03:39:10;;;;;;;27.82;11.05;;;;;;;7.53;91.26;100883.60;1622006;87;27375;-66
2022/10/05 03:41:48;;;;;;;18.75;10.05;;;;;;;7.54;91.31;100898.66;1638606;87;27165;-66
2022/10/05 03:44:28;;;;;;;24.43;11.45;;;;;;;7.53;91.33;100890.87;1627334;87;25557;-66
2022/10/05 03:47:23;;;;;;;18.55;10.98;;;;;;;7.54;91.33;100887.09;1636451;86;26156;-66
2022/10/05 03:50:13;;;;;;;20.77;9.90;;;;;;;7.51;91.44;100871.48;1632501;86;25696;-68
2022/10/05 03:52:54;;;;;;;18.60;9.88;;;;;;;7.51;91.33;100866.09;1638839;87;27405;-68
2022/10/05 03:55:40;;;;;;;18.52;10.40;;;;;;;7.50;91.38;100863.16;1615050;87;25666;-67
2022/10/05 03:58:28;;;;;;;17.98;10.80;;;;;;;7.46;91.43;100850.79;1635837;86;25676;-67
2022/10/05 04:01:02;;;;;;;19.90;10.90;;;;;;;7.45;91.40;100852.66;1635019;87;26691;-66
2022/10/05 04:03:33;;;;;;;17.77;10.43;;;;;;;7.45;91.45;100860.73;1631590;86;25689;-66
2022/10/05 04:06:08;;;;;;;23.10;10.78;;;;;;;7.44;91.62;100861.83;1637145;86;27709;-66
2022/10/05 04:08:52;;;;;;;22.73;10.93;;;;;;;7.42;91.62;100866.69;1635620;85;25702;-66
2022/10/05 04:11:24;;;;;;;21.45;10.48;;;;;;;7.43;91.69;100861.55;1641564;87;25487;-66
2022/10/05 04:14:01;;;;;;;19.82;11.55;;;;;;;7.43;91.63;100862.89;1636614;87;25912;-66
2022/10/05 04:16:44;;;;;;;21.23;11.00;;;;;;;7.42;91.63;100859.95;1627628;86;25414;-69
2022/10/05 04:19:31;;;;;;;24.10;11.50;;;;;;;7.41;91.69;100856.98;1594729;89;27364;-69
2022/10/05 04:22:15;;;;;;;26.57;11.30;;;;;;;7.41;91.73;100852.95;1590532;90;25756;-69
2022/10/05 04:24:55;;;;;;;17.87;10.43;;;;;;;7.38;91.77;100846.76;1603513;88;25716;-66
2022/10/05 04:27:32;;;;;;;15.18;9.18;;;;;;;7.38;91.86;100849.45;1576395;90;25985;-66
2022/10/05 04:30:11;;;;;;;18.57;10.95;;;;;;;7.38;91.91;100841.38;1588374;90;25682;-66
2022/10/05 04:32:48;;;;;;;23.17;11.87;;;;;;;7.38;92.05;100851.34;1589919;90;27437;-66
2022/10/05 04:35:38;;;;;;;20.82;11.10;;;;;;;7.38;92.05;100854.04;1589874;90;25968;-68
2022/10/05 04:38:20;;;;;;;;;;;;;;;7.37;92.03;100847.86;1587565;90;25705;-68
2022/10/05 04:41:12;;;;;;;19.23;10.72;;;;;;;7.38;92.16;100852.70;1590052;90;28264;-66
2022/10/05 04:44:13;;;;;;;19.67;10.82;;;;;;;7.36;92.14;100851.62;1592238;90;25557;-66
2022/10/05 04:46:54;;;;;;;18.57;10.63;;;;;;;7.35;92.36;100848.64;1592086;90;28058;-67
2022/10/05 04:49:37;;;;;;;21.57;12.03;;;;;;;7.33;92.26;100852.16;1592273;90;25746;-67
2022/10/05 04:52:25;;;;;;;21.65;11.70;;;;;;;7.33;92.32;100861.58;1592004;90;25715;-67
2022/10/05 04:55:44;;;;;;;27.32;11.95;;;;;;;7.31;92.40;100857.02;1593314;88;25949;-67
2022/10/05 04:58:32;;;;;;;19.98;12.53;;;;;;;7.31;92.42;100865.64;1637566;86;25728;-67
2022/10/05 05:01:34;;;;;;;21.40;10.73;;;;;;;7.31;92.61;100872.36;1642103;86;28655;-68
2022/10/05 05:04:31;;;;;;;18.98;11.57;;;;;;;7.27;92.59;100860.80;1647888;86;25754;-69
2022/10/05 05:07:14;;;;;;;18.92;11.70;;;;;;;7.27;92.63;100858.62;1627041;86;25684;-67
2022/10/05 05:09:58;;;;;;;19.32;10.53;;;;;;;7.28;92.76;100872.35;1645923;86;26809;-68
2022/10/05 05:12:55;;;;;;;22.73;11.28;;;;;;;7.27;92.80;100871.56;1642678;86;25599;-68
2022/10/05 05:15:37;;;;;;;21.48;11.25;;;;;;;7.26;92.81;100875.31;1635290;86;27422;-67
2022/10/05 05:18:32;;;;;;;19.65;12.30;;;;;;;7.28;92.91;100881.77;1630403;86;27250;-67
2022/10/05 05:21:09;;;;;;;25.97;12.20;;;;;;;7.28;93.09;100881.22;1627231;86;25689;-68
2022/10/05 05:24:19;;;;;;;19.42;10.18;;;;;;;7.30;93.54;100876.92;1633762;86;26229;-68
2022/10/05 05:27:12;;;;;;;25.15;12.70;;;;;;;7.33;93.55;100878.27;1650311;86;25690;-67
2022/10/05 05:30:15;;;;;;;20.72;11.40;;;;;;;7.34;93.63;100883.91;1570352;90;27553;-68
2022/10/05 05:33:12;;;;;;;19.85;11.25;;;;;;;7.38;93.74;100880.95;1568314;90;25471;-68
2022/10/05 05:36:18;;;;;;;21.62;12.00;;;;;;;7.44;93.89;100886.57;1564537;89;25612;-66
2022/10/05 05:39:13;;;;;;;20.32;12.03;;;;;;;7.45;93.95;100887.65;1569862;91;26001;-68
2022/10/05 05:42:02;;;;;;;23.70;12.40;;;;;;;7.51;93.98;100885.77;1560804;91;25535;-69
2022/10/05 05:44:39;;;;;;;17.20;10.60;;;;;;;7.55;94.09;100886.02;1564298;91;27383;-68
2022/10/05 05:47:36;;;;;;;16.85;10.72;;;;;;;7.59;94.06;100880.34;1575469;90;25785;-69
2022/10/05 05:50:32;;;;;;;19.77;11.15;;;;;;;7.64;94.17;100880.33;1574569;89;25655;-69
2022/10/05 05:53:04;;;;;;;22.58;11.88;;;;;;;7.67;94.13;100869.02;1570148;89;26143;-68
2022/10/05 05:55:47;;;;;;;20.30;10.58;;;;;;;7.73;94.14;100876.00;1555930;90;25704;-68
2022/10/05 05:58:27;;;;;;;19.67;12.13;;;;;;;7.76;94.11;100875.98;1574640;89;28038;-66
2022/10/05 06:01:08;;;;;;;20.27;12.00;;;;;;;7.79;94.20;100883.52;1572838;91;26308;-68
2022/10/05 06:03:39;;;;;;;23.57;12.47;;;;;;;7.83;94.19;100884.56;1572727;91;25857;-67
2022/10/05 06:06:13;;;;;;;19.73;11.88;;;;;;;7.87;94.26;100882.94;1605639;85;26367;-67
2022/10/05 06:08:44;;;;;;;22.30;11.97;;;;;;;7.92;94.37;100882.92;1692055;83;25742;-67
2022/10/05 06:11:36;;;;;;;23.32;11.53;;;;;;;7.98;94.40;100889.08;1685252;83;27383;-67
2022/10/05 06:14:29;;;;;;;28.10;12.70;;;;;;;8.03;94.39;100880.98;1687033;83;25685;-67
2022/10/05 06:17:23;;;;;;;29.90;12.35;;;;;;;8.09;94.39;100877.70;1690574;83;25571;-67
2022/10/05 06:19:56;;;;;;;24.85;13.03;;;;;;;8.14;94.42;100888.45;1689583;83;26038;-66
2022/10/05 06:22:33;;;;;;;29.63;13.05;;;;;;;8.19;94.32;100893.84;1694673;83;25806;-67
2022/10/05 06:25:14;;;;;;;18.17;11.08;;;;;;;8.26;94.31;100888.95;1688915;83;27460;-68
2022/10/05 06:28:11;;;;;;;25.75;12.53;;;;;;;8.30;94.20;100882.45;1689337;83;25860;-69
2022/10/05 06:33:54;;;;;;;25.52;12.28;;;;;;;8.40;94.24;100883.73;1697205;84;26051;-67
2022/10/05 06:36:39;;;;;;;20.68;11.73;;;;;;;8.47;94.04;100880.20;1691357;83;25667;-67
2022/10/05 06:39:26;;;;;;;25.75;12.20;;;;;;;8.52;93.95;100876.67;1696782;83;27338;-66
2022/10/05 06:42:13;;;;;;;25.82;11.55;;;;;;;8.58;93.93;100880.93;1684485;84;25540;-68
2022/10/05 06:45:12;;;;;;;17.00;11.15;;;;;;;8.66;93.97;100874.14;1684233;85;25508;-67
2022/10/05 06:47:55;;;;;;;20.80;12.33;;;;;;;8.72;93.94;100883.82;1684442;85;27018;-67
2022/10/05 06:50:33;;;;;;;21.73;11.80;;;;;;;8.79;93.61;100901.27;1684550;84;25465;-67
2022/10/05 06:56:34;;;;;;;22.62;11.25;;;;;;;8.93;93.69;100890.64;1716643;83;25803;-67
2022/10/05 06:59:20;;;;;;;19.17;11.28;;;;;;;9.04;93.80;100902.17;1696931;82;25646;-68
2022/10/05 07:02:07;;;;;;;18.73;10.95;;;;;;;9.13;93.67;100896.95;1716658;83;25990;-69
2022/10/05 07:04:55;;;;;;;18.15;10.58;;;;;;;9.19;93.24;100896.36;1708974;83;25883;-68
2022/10/05 07:07:39;;;;;;;21.42;10.65;;;;;;;9.25;93.12;100896.02;1727192;83;27281;-68
2022/10/05 07:10:13;;;;;;;21.15;10.55;;;;;;;9.35;93.36;100902.67;1726869;83;25747;-67
2022/10/05 07:12:51;;;;;;;16.42;11.30;;;;;;;9.42;93.26;100898.28;1726550;82;25777;-68
2022/10/05 07:15:31;;;;;;;20.37;10.88;;;;;;;9.50;93.32;100901.72;1722516;81;26208;-66
2022/10/05 07:18:34;;;;;;;17.90;9.95;;;;;;;9.59;92.97;100888.38;1707958;83;25670;-69
2022/10/05 07:21:43;;;;;;;20.45;10.05;;;;;;;9.68;93.32;100897.45;1666977;85;27351;-68
2022/10/05 07:24:28;;;;;;;17.80;9.20;;;;;;;9.83;93.24;100893.77;1686057;84;25709;-66
2022/10/05 07:27:20;;;;;;;20.55;9.85;;;;;;;9.96;93.15;100889.56;1690565;84;25718;-67
2022/10/05 07:30:06;;;;;;;19.95;8.65;;;;;;;10.04;92.21;100888.09;1690241;84;26759;-66
2022/10/05 07:32:58;;;;;;;15.68;8.93;;;;;;;10.08;91.72;100885.09;1675724;83;25864;-67
2022/10/05 07:38:39;;;;;;;;;;;;;;;10.25;91.67;100884.03;1714150;83;25750;-67
2022/10/05 07:41:31;;;;;;;17.17;8.28;;;;;;;10.37;90.95;100881.45;1717703;82;25665;-68
2022/10/05 07:44:12;;;;;;;15.38;8.68;;;;;;;10.53;91.70;100879.34;1724107;82;28128;-69
2022/10/05 07:47:14;;;;;;;17.45;9.25;;;;;;;10.74;90.71;100880.61;1727591;82;25445;-67
2022/10/05 07:50:03;;;;;;;22.00;7.55;;;;;;;10.89;90.95;100882.82;1716917;82;27337;-67
2022/10/05 07:52:40;;;;;;;17.50;8.75;;;;;;;11.08;90.38;100874.64;1710583;82;25763;-67
2022/10/05 07:55:45;;;;;;;16.82;8.28;;;;;;;11.24;90.57;100868.39;1720279;82;26304;-66
2022/10/05 07:58:29;;;;;;;12.80;7.72;;;;;;;11.41;89.65;100867.28;1701152;82;28111;-68
2022/10/05 08:01:13;;;;;;;16.50;7.60;;;;;;;11.58;89.15;100865.32;1714193;82;25659;-68
2022/10/05 08:03:51;;;;;;;11.28;6.65;;;;;;;11.69;88.58;100865.91;1715170;82;27333;-67
2022/10/05 08:06:44;;;;;;;14.13;7.55;;;;;;;11.85;88.54;100859.61;1701208;83;26127;-67
2022/10/05 08:09:53;;;;;;;11.35;6.97;;;;;;;11.94;87.24;100860.55;1678730;83;25661;-69
2022/10/05 08:12:41;;;;;;;17.17;5.95;;;;;;;12.09;87.86;100861.56;1700401;82;26567;-69
2022/10/05 08:15:39;;;;;;;13.78;6.62;;;;;;;12.24;85.34;100879.41;1678652;83;25408;-68
2022/10/05 08:18:51;;;;;;;11.18;5.95;;;;;;;12.37;84.61;100870.18;1687809;83;27413;-68
2022/10/05 08:21:22;;;;;;;11.85;5.95;;;;;;;12.65;86.29;100858.11;1657816;85;25699;-68
2022/10/05 08:23:57;;;;;;;11.45;5.78;;;;;;;13.14;84.97;100862.84;1687467;85;25721;-66
2022/10/05 08:26:49;;;;;;;13.22;5.17;;;;;;;13.30;83.48;100850.47;1658335;85;26703;-67
2022/10/05 08:29:53;;;;;;;11.38;5.25;;;;;;;13.41;82.94;100860.52;1678334;84;25813;-66
2022/10/05 08:32:44;;;;;;;12.07;5.45;;;;;;;13.60;82.23;100847.48;1602283;88;28249;-67
2022/10/05 08:35:42;;;;;;;13.85;5.50;;;;;;;14.04;82.40;100852.20;1593658;89;25566;-68
2022/10/05 08:38:15;;;;;;;12.20;5.45;;;;;;;14.46;81.22;100857.41;1626874;87;25726;-67
2022/10/05 08:41:34;;;;;;;12.35;6.00;;;;;;;14.96;81.76;100843.02;1604048;88;26835;-69
2022/10/05 08:44:35;;;;;;;13.65;5.90;;;;;;;15.43;79.95;100843.00;1631331;86;25744;-69
2022/10/05 08:47:42;;;;;;;8.63;5.10;;;;;;;15.59;76.40;100850.05;1602863;88;27457;-70
2022/10/05 08:50:32;;;;;;;9.75;5.50;;;;;;;15.47;74.11;100843.94;1631310;87;25844;-69
2022/10/05 08:53:21;;;;;;;11.40;5.33;;;;;;;15.45;73.72;100853.01;1598016;88;25887;-68
2022/10/05 08:56:34;;;;;;;10.48;5.58;;;;;;;15.35;72.50;100854.74;1629812;86;28207;-66
2022/10/05 08:59:39;;;;;;;7.95;4.87;;;;;;;15.27;73.12;100850.91;1628687;86;25752;-66
2022/10/05 09:02:23;;;;;;;15.98;5.22;;;;;;;15.37;72.68;100853.27;1627865;87;27535;-67
2022/10/05 09:05:04;;;;;;;12.50;5.37;;;;;;;15.43;72.99;100853.34;1609449;87;26077;-66
2022/10/05 09:08:09;;;;;;;17.80;5.28;;;;;;;15.46;71.89;100841.78;1643853;86;25672;-65
2022/10/05 09:10:59;;;;;;;9.90;5.50;;;;;;;15.58;72.24;100844.34;1637843;85;26998;-70
2022/10/05 09:14:21;;;;;;;9.88;4.97;;;;;;;15.65;71.79;100838.62;1640895;85;25820;-64
2022/10/05 09:17:08;;;;;;;12.98;4.85;;;;;;;15.69;71.00;100831.38;1636077;85;25943;-65
2022/10/05 09:20:15;;;;;;;9.98;4.85;;;;;;;15.80;71.70;100818.20;1647254;85;25723;-71
2022/10/05 09:22:59;;;;;;;9.47;4.70;;;;;;;15.81;70.24;100818.41;1648131;85;25677;-69
2022/10/05 09:25:57;;;;;;;10.60;5.15;;;;;;;15.75;71.03;100817.54;1627043;87;27148;-69
2022/10/05 09:28:35;;;;;;;12.07;4.72;;;;;;;15.74;70.12;100811.30;1647629;85;25649;-68
2022/10/05 09:31:13;;;;;;;16.73;5.03;;;;;;;15.59;69.05;100809.15;1647506;85;27903;-69
2022/10/05 09:33:53;;;;;;;7.92;4.28;;;;;;;15.46;68.34;100809.07;1647081;87;25763;-69
2022/10/05 09:36:49;;;;;;;8.63;4.83;;;;;;;15.32;69.24;100803.03;1639935;85;26483;-67
2022/10/05 09:39:45;;;;;;;9.08;4.75;;;;;;;15.25;68.63;100804.91;1636801;86;25931;-68
2022/10/05 09:42:35;;;;;;;11.65;5.72;;;;;;;15.26;68.98;100811.17;1589403;89;25878;-68
2022/10/05 09:45:47;;;;;;;12.60;5.22;;;;;;;15.39;70.35;100806.61;1555035;90;27321;-67
2022/10/05 09:48:28;;;;;;;9.70;5.17;;;;;;;15.47;69.76;100795.66;1601618;87;25445;-67
2022/10/05 09:51:08;;;;;;;14.73;5.20;;;;;;;15.56;69.79;100799.72;1613571;87;25528;-68
2022/10/05 09:54:09;;;;;;;10.50;5.33;;;;;;;15.71;69.93;100785.26;1612691;88;26067;-69
2022/10/05 09:56:55;;;;;;;7.37;4.47;;;;;;;15.87;69.96;100783.58;1642922;85;26100;-69
2022/10/05 10:00:04;;;;;;;12.45;4.90;;;;;;;16.12;69.27;100800.84;1637489;86;27621;-68
2022/10/05 10:02:48;;;;;;;12.95;5.00;;;;;;;16.36;67.93;100802.91;1643576;86;29104;-70
2022/10/05 10:05:37;;;;;;;10.65;5.20;;;;;;;16.62;67.89;100819.59;1644343;86;25653;-67
2022/10/05 10:08:39;;;;;;;7.30;4.78;;;;;;;16.78;68.50;100811.55;1631926;86;25960;-67
2022/10/05 10:11:37;;;;;;;10.23;5.12;;;;;;;17.06;69.24;100807.64;1640895;86;25490;-67
2022/10/05 10:14:26;;;;;;;11.03;4.50;;;;;;;17.47;68.46;100803.09;1641431;86;29221;-64
2022/10/05 10:17:09;;;;;;;5.63;3.83;;;;;;;17.89;66.56;100820.61;1590462;89;25703;-68
2022/10/05 10:20:00;;;;;;;10.15;3.98;;;;;;;17.98;65.05;100799.95;1614905;85;25741;-67
2022/10/05 10:22:48;;;;;;;6.75;4.20;;;;;;;17.86;64.02;100813.09;1652697;85;26533;-66
2022/10/05 10:25:49;;;;;;;5.45;3.85;;;;;;;17.93;65.68;100811.14;1541411;90;25734;-68
2022/10/05 10:28:53;;;;;;;6.17;4.10;;;;;;;18.04;64.75;100816.33;1547221;91;27471;-67
2022/10/05 10:31:39;;;;;;;7.50;4.30;;;;;;;18.07;64.11;100804.70;1548702;91;25987;-65
2022/10/05 10:34:38;;;;;;;8.48;4.40;;;;;;;18.40;63.53;100816.55;1514158;93;25719;-67
2022/10/05 10:37:34;;;;;;;10.00;4.10;;;;;;;18.70;63.71;100817.55;1506007;93;26032;-66
2022/10/05 10:40:25;;;;;;;7.15;3.42;;;;;;;19.16;64.00;100821.48;1537752;91;25732;-68
2022/10/05 10:43:28;;;;;;;9.93;4.10;;;;;;;19.47;62.34;100825.34;1510359;93;27338;-69
2022/10/05 10:46:33;;;;;;;8.20;3.62;;;;;;;19.33;59.84;100823.66;1507056;93;25744;-69
2022/10/05 10:49:27;;;;;;;10.15;4.40;;;;;;;19.04;59.13;100794.17;1509921;93;25569;-69
2022/10/05 10:52:16;;;;;;;7.37;3.67;;;;;;;18.81;59.04;100781.06;1488468;95;26085;-67
2022/10/05 10:55:18;;;;;;;10.03;3.70;;;;;;;18.59;59.59;100779.71;1531022;91;25772;-69
2022/10/05 10:58:22;;;;;;;6.67;3.80;;;;;;;18.41;58.89;100763.38;1562698;90;28205;-66
2022/10/05 11:01:12;;;;;;;4.75;3.40;;;;;;;18.48;58.41;100769.83;1548148;91;25640;-68
2022/10/05 11:03:57;;;;;;;8.33;3.85;;;;;;;18.59;60.24;100766.02;1622369;88;25732;-67
2022/10/05 11:06:48;;;;;;;8.55;3.87;;;;;;;19.09;57.69;100783.52;1595332;88;25997;-67
2022/10/05 11:09:55;;;;;;;9.70;4.53;;;;;;;19.07;58.30;100762.49;1565108;89;25535;-68
2022/10/05 11:13:00;;;;;;;6.37;3.58;;;;;;;18.89;58.62;100757.38;1604879;89;27368;-69
2022/10/05 11:16:00;;;;;;;7.95;4.25;;;;;;;18.60;58.70;100751.16;1623183;88;25684;-68
2022/10/05 11:19:14;;;;;;;7.67;3.80;;;;;;;18.32;58.50;100747.11;1592918;89;25804;-67
2022/10/05 11:22:06;;;;;;;7.50;3.85;;;;;;;18.02;58.80;100748.83;1623082;88;25901;-68
2022/10/05 11:25:07;;;;;;;6.92;4.03;;;;;;;17.80;58.92;100749.34;1620284;88;26824;-68
2022/10/05 11:27:47;;;;;;;6.75;3.98;;;;;;;17.62;59.48;100754.28;1599164;84;27636;-67
2022/10/05 11:30:51;;;;;;;9.70;4.53;;;;;;;17.47;60.46;100753.05;1667962;83;27276;-68
2022/10/05 11:33:41;;;;;;;11.28;4.30;;;;;;;17.44;61.20;100758.64;1665881;83;25655;-67
2022/10/05 11:36:25;;;;;;;9.48;5.17;;;;;;;17.44;61.71;100747.70;1698821;83;25941;-68
2022/10/05 11:39:19;;;;;;;6.40;4.50;;;;;;;17.58;62.21;100747.34;1661978;84;25670;-67
2022/10/05 11:42:11;;;;;;;7.47;4.35;;;;;;;17.66;62.18;100746.99;1688474;83;28060;-66
2022/10/05 11:45:23;;;;;;;9.23;4.45;;;;;;;17.90;61.52;100729.73;1712450;82;25398;-68
2022/10/05 11:48:12;;;;;;;10.43;4.35;;;;;;;18.11;62.02;100739.88;1689995;83;25630;-67
2022/10/05 11:50:50;;;;;;;7.43;4.53;;;;;;;18.37;62.56;100730.42;1702611;82;25563;-67
2022/10/05 11:53:44;;;;;;;9.98;4.42;;;;;;;18.99;61.52;100743.14;1694953;82;25593;-67
2022/10/05 11:56:39;;;;;;;10.18;4.20;;;;;;;19.27;59.99;100737.30;1704622;82;27343;-68
2022/10/05 11:59:34;;;;;;;5.65;3.72;;;;;;;19.59;61.82;100731.16;1710529;82;25514;-67
2022/10/05 12:02:40;;;;;;;9.90;4.28;;;;;;;20.04;60.28;100736.62;1690120;84;25767;-66
2022/10/05 12:05:53;;;;;;;8.13;3.60;;;;;;;20.08;57.21;100733.94;1711627;82;26937;-67
2022/10/05 12:08:52;;;;;;;9.10;4.58;;;;;;;19.83;56.67;100729.32;1691588;84;25658;-68
2022/10/05 12:11:50;;;;;;;10.03;4.28;;;;;;;19.72;56.92;100731.83;1710653;82;28207;-68
2022/10/05 12:14:32;;;;;;;6.72;4.15;;;;;;;19.45;56.48;100730.27;1693155;82;25425;-67
2022/10/05 12:17:16;;;;;;;8.48;4.17;;;;;;;19.28;56.75;100725.20;1712537;82;25622;-67
2022/10/05 12:19:57;;;;;;;7.08;3.60;;;;;;;19.20;57.24;100722.27;1711958;82;25994;-66
2022/10/05 12:22:34;;;;;;;7.08;4.12;;;;;;;19.18;57.61;100729.28;1712619;82;25695;-67
2022/10/05 12:25:36;;;;;;;7.78;3.60;;;;;;;19.13;57.69;100733.08;1704912;82;27332;-66
2022/10/05 12:28:12;;;;;;;8.08;3.77;;;;;;;19.10;57.77;100733.00;1669325;83;26250;-66
2022/10/05 12:31:13;;;;;;;6.12;3.35;;;;;;;19.05;57.66;100725.83;1702520;82;25485;-65
2022/10/05 12:34:06;;;;;;;8.78;3.80;;;;;;;18.92;55.79;100727.11;1665022;84;28075;-68
2022/10/05 12:36:46;;;;;;;8.55;4.22;;;;;;;18.65;56.94;100719.97;1687304;84;26578;-68
2022/10/05 12:39:38;;;;;;;7.12;3.80;;;;;;;18.45;57.42;100717.70;1708296;82;27387;-68
2022/10/05 12:42:18;;;;;;;8.48;3.83;;;;;;;18.36;57.76;100721.19;1687497;84;25664;-67
2022/10/05 12:45:17;;;;;;;6.55;3.85;;;;;;;18.28;58.14;100717.45;1679501;84;25469;-69
2022/10/05 12:48:29;;;;;;;5.45;4.40;;;;;;;18.29;57.87;100725.91;1692746;82;25936;-66
2022/10/05 12:51:20;;;;;;;8.03;3.92;;;;;;;18.26;58.62;100713.70;1666998;83;25226;-66
2022/10/05 12:57:07;;;;;;;8.45;4.37;;;;;;;18.07;58.28;100714.95;1667542;85;25467;-68
2022/10/05 12:59:50;;;;;;;10.75;6.20;;;;;;;17.89;58.39;100719.91;1660093;84;25819;-69
2022/10/05 13:02:31;;;;;;;11.38;6.47;;;;;;;17.74;58.79;100715.94;1672991;84;26471;-69
2022/10/05 13:05:11;;;;;;;6.78;4.33;;;;;;;17.68;59.43;100719.50;1680582;83;25732;-67
2022/10/05 13:08:13;;;;;;;7.72;4.55;;;;;;;17.65;59.74;100713.93;1680303;85;28169;-68
2022/10/05 13:11:13;;;;;;;10.03;5.58;;;;;;;17.60;59.96;100730.00;1602813;88;25767;-68